createdAt,value
2023-06-22T00:01:54.904Z,84.29
2023-06-22T00:04:21.052Z,84.15
2023-06-22T00:06:47.251Z,84.15
2023-06-22T00:09:13.358Z,84.06
2023-06-22T00:11:39.516Z,83.90
2023-06-22T00:14:05.630Z,84.08
2023-06-22T00:16:31.802Z,84.36
2023-06-22T00:19:00.901Z,84.61
2023-06-22T00:21:26.981Z,84.77
2023-06-22T00:23:53.288Z,84.61
2023-06-22T00:26:19.539Z,84.59
2023-06-22T00:28:45.641Z,84.81
2023-06-22T00:31:11.823Z,85.11
2023-06-22T00:33:38.031Z,85.20
2023-06-22T00:36:04.160Z,85.23
2023-06-22T00:38:30.465Z,85.24
2023-06-22T00:40:56.585Z,85.34
2023-06-22T00:43:22.785Z,85.70
2023-06-22T00:45:48.920Z,85.82
2023-06-22T00:48:15.257Z,85.73
2023-06-22T00:50:41.338Z,85.50
2023-06-22T00:53:08.628Z,85.33
2023-06-22T00:55:37.810Z,85.28
2023-06-22T00:58:06.056Z,85.29
2023-06-22T01:00:33.237Z,85.30
2023-06-22T01:02:59.561Z,85.27
2023-06-22T01:05:25.834Z,85.29
2023-06-22T01:07:53.473Z,85.31
2023-06-22T01:10:19.633Z,85.22
2023-06-22T01:12:45.876Z,85.26
2023-06-22T01:15:12.032Z,85.37
2023-06-22T01:17:38.367Z,85.15
2023-06-22T01:20:07.383Z,84.86
2023-06-22T01:22:33.510Z,85.09
2023-06-22T01:24:59.800Z,85.23
2023-06-22T01:27:25.907Z,85.40
2023-06-22T01:29:52.012Z,85.68
2023-06-22T01:32:18.208Z,85.76
2023-06-22T01:34:44.366Z,85.88
2023-06-22T01:37:10.554Z,86.19
2023-06-22T01:39:36.727Z,86.49
2023-06-22T01:42:02.899Z,86.43
2023-06-22T01:44:29.015Z,86.33
2023-06-22T01:46:55.183Z,86.23
2023-06-22T01:49:21.863Z,86.11
2023-06-22T01:51:47.954Z,86.16
2023-06-22T01:54:14.094Z,86.10
2023-06-22T01:56:40.186Z,86.09
2023-06-22T01:59:06.592Z,86.24
2023-06-22T02:01:32.786Z,86.24
2023-06-22T02:03:59.104Z,86.13
2023-06-22T02:06:25.393Z,86.09
2023-06-22T02:08:51.578Z,86.04
2023-06-22T02:11:17.648Z,85.94
2023-06-22T02:13:43.858Z,85.94
2023-06-22T02:16:10.013Z,86.03
2023-06-22T02:18:36.653Z,86.23
2023-06-22T02:21:02.915Z,86.31
2023-06-22T02:23:29.122Z,86.50
2023-06-22T02:25:55.408Z,86.95
2023-06-22T02:28:21.626Z,86.90
2023-06-22T02:30:47.802Z,86.93
2023-06-22T02:33:13.963Z,86.99
2023-06-22T02:35:40.277Z,86.80
2023-06-22T02:38:06.456Z,86.96
2023-06-22T02:40:32.591Z,87.02
2023-06-22T02:43:02.163Z,86.82
2023-06-22T02:45:28.315Z,86.62
2023-06-22T02:47:54.532Z,86.53
2023-06-22T02:50:20.699Z,86.49
2023-06-22T02:52:46.979Z,86.56
2023-06-22T02:55:13.111Z,86.58
2023-06-22T02:57:44.018Z,86.55
2023-06-22T03:00:17.248Z,86.52
2023-06-22T03:02:43.958Z,86.54
2023-06-22T03:05:13.833Z,86.52
2023-06-22T03:07:40.055Z,86.65
2023-06-22T03:10:06.186Z,86.60
2023-06-22T03:12:32.296Z,86.66
2023-06-22T03:14:58.639Z,86.73
2023-06-22T03:17:24.868Z,86.75
2023-06-22T03:19:51.238Z,86.70
2023-06-22T03:22:17.365Z,86.74
2023-06-22T03:24:43.548Z,86.78
2023-06-22T03:27:09.787Z,86.67
2023-06-22T03:29:36.000Z,86.60
2023-06-22T03:32:02.378Z,86.69
2023-06-22T03:34:28.774Z,86.73
2023-06-22T03:36:54.934Z,86.67
2023-06-22T03:39:21.118Z,86.74
2023-06-22T03:41:47.294Z,86.82
2023-06-22T03:44:13.499Z,86.84
2023-06-22T03:46:39.615Z,86.72
2023-06-22T03:49:06.013Z,86.66
2023-06-22T03:51:32.216Z,86.60
2023-06-22T03:53:58.280Z,86.58
2023-06-22T03:56:24.465Z,86.62
2023-06-22T03:58:51.222Z,86.67
2023-06-22T04:01:17.520Z,86.64
2023-06-22T04:03:44.006Z,86.67
2023-06-22T04:06:10.267Z,86.65
2023-06-22T04:08:36.404Z,86.58
2023-06-22T04:11:02.543Z,86.50
2023-06-22T04:13:28.802Z,86.42
2023-06-22T04:15:54.934Z,86.38
2023-06-22T04:18:21.168Z,86.43
2023-06-22T04:20:47.378Z,86.48
2023-06-22T04:23:13.469Z,86.48
2023-06-22T04:25:39.544Z,86.50
2023-06-22T04:28:05.820Z,86.59
2023-06-22T04:30:32.168Z,86.53
2023-06-22T04:32:58.899Z,86.42
2023-06-22T04:35:25.549Z,86.22
2023-06-22T04:37:55.083Z,86.12
2023-06-22T04:40:21.194Z,85.93
2023-06-22T04:42:52.639Z,85.94
2023-06-22T04:45:18.770Z,85.88
2023-06-22T04:47:45.924Z,85.67
2023-06-22T04:50:12.250Z,85.29
2023-06-22T04:52:38.452Z,85.07
2023-06-22T04:55:04.565Z,85.02
2023-06-22T04:57:34.465Z,84.67
2023-06-22T05:00:13.187Z,84.37
2023-06-22T05:02:39.465Z,83.94
2023-06-22T05:05:07.480Z,83.71
2023-06-22T05:07:33.706Z,83.75
2023-06-22T05:09:59.972Z,83.45
2023-06-22T05:12:26.060Z,83.18
2023-06-22T05:14:52.168Z,82.65
2023-06-22T05:17:19.453Z,82.21
2023-06-22T05:19:48.495Z,82.11
2023-06-22T05:22:14.838Z,82.42
2023-06-22T05:24:40.962Z,82.51
2023-06-22T05:27:07.053Z,82.68
2023-06-22T05:29:33.307Z,82.82
2023-06-22T05:31:59.489Z,83.06
2023-06-22T05:34:25.602Z,83.06
2023-06-22T05:36:51.762Z,82.91
2023-06-22T05:39:17.948Z,83.43
2023-06-22T05:41:44.113Z,82.70
2023-06-22T05:44:10.250Z,82.60
2023-06-22T05:46:36.466Z,82.53
2023-06-22T05:49:02.569Z,82.24
2023-06-22T05:51:28.949Z,82.24
2023-06-22T05:53:55.255Z,81.95
2023-06-22T05:56:21.404Z,81.77
2023-06-22T05:58:47.684Z,81.83
2023-06-22T06:01:15.973Z,81.37
2023-06-22T06:03:42.258Z,80.98
2023-06-22T06:06:08.747Z,80.82
2023-06-22T06:08:35.022Z,81.15
2023-06-22T06:11:01.195Z,81.23
2023-06-22T06:13:27.303Z,80.59
2023-06-22T06:15:55.513Z,80.72
2023-06-22T06:18:21.553Z,80.44
2023-06-22T06:20:47.689Z,80.34
2023-06-22T06:23:13.861Z,80.47
2023-06-22T06:25:39.970Z,79.92
2023-06-22T06:28:06.132Z,80.08
2023-06-22T06:30:32.804Z,80.23
2023-06-22T06:32:59.468Z,80.14
2023-06-22T06:35:25.867Z,80.18
2023-06-22T06:37:52.025Z,80.14
2023-06-22T06:40:18.167Z,79.82
2023-06-22T06:42:45.519Z,79.22
2023-06-22T06:45:11.886Z,79.21
2023-06-22T06:47:38.327Z,78.81
2023-06-22T06:50:04.585Z,78.34
2023-06-22T06:52:30.907Z,78.57
2023-06-22T06:54:57.030Z,78.17
2023-06-22T06:57:23.092Z,75.98
2023-06-22T06:59:49.490Z,75.49
2023-06-22T07:02:15.706Z,75.93
2023-06-22T07:04:41.901Z,75.88
2023-06-22T07:07:08.226Z,75.39
2023-06-22T07:09:34.417Z,75.24
2023-06-22T07:12:00.644Z,75.02
2023-06-22T07:14:26.972Z,75.35
2023-06-22T07:16:53.174Z,75.31
2023-06-22T07:19:19.345Z,74.88
2023-06-22T07:21:45.465Z,73.84
2023-06-22T07:24:11.560Z,73.07
2023-06-22T07:26:37.661Z,71.99
2023-06-22T07:29:04.836Z,71.84
2023-06-22T07:31:31.151Z,70.90
2023-06-22T07:33:57.277Z,72.06
2023-06-22T07:36:23.505Z,72.44
2023-06-22T07:38:49.601Z,70.13
2023-06-22T07:41:16.441Z,69.96
2023-06-22T07:43:42.687Z,69.95
2023-06-22T07:46:08.998Z,69.70
2023-06-22T07:48:35.227Z,68.78
2023-06-22T07:51:01.584Z,69.01
2023-06-22T07:53:28.790Z,68.74
2023-06-22T07:55:54.943Z,69.41
2023-06-22T07:58:21.316Z,68.39
2023-06-22T08:00:48.659Z,67.74
2023-06-22T08:03:14.873Z,68.27
2023-06-22T08:05:41.241Z,68.11
2023-06-22T08:08:07.396Z,67.24
2023-06-22T08:10:33.603Z,67.77
2023-06-22T08:13:00.091Z,67.42
2023-06-22T08:15:26.345Z,66.77
2023-06-22T08:17:52.945Z,66.79
2023-06-22T08:20:19.493Z,67.16
2023-06-22T08:22:45.622Z,66.87
2023-06-22T08:25:11.784Z,66.71
2023-06-22T08:27:38.011Z,66.41
2023-06-22T08:30:04.223Z,66.66
2023-06-22T08:32:30.450Z,66.34
2023-06-22T08:34:56.697Z,66.17
2023-06-22T08:37:30.785Z,65.30
2023-06-22T08:39:57.136Z,65.29
2023-06-22T08:42:24.549Z,65.77
2023-06-22T08:44:50.742Z,65.04
2023-06-22T08:47:16.866Z,64.44
2023-06-22T08:49:43.056Z,64.77
2023-06-22T08:52:09.227Z,65.20
2023-06-22T08:54:35.409Z,65.26
2023-06-22T08:57:01.658Z,65.03
2023-06-22T08:59:27.837Z,64.81
2023-06-22T09:01:54.773Z,65.07
2023-06-22T09:04:25.061Z,64.31
2023-06-22T09:06:52.744Z,63.93
2023-06-22T09:09:19.030Z,63.42
2023-06-22T09:11:45.279Z,62.98
2023-06-22T09:14:11.529Z,63.02
2023-06-22T09:16:37.876Z,62.67
2023-06-22T09:19:04.272Z,63.73
2023-06-22T09:21:31.996Z,64.16
2023-06-22T09:23:59.301Z,63.46
2023-06-22T09:26:25.709Z,63.46
2023-06-22T09:28:51.906Z,62.99
2023-06-22T09:31:18.043Z,63.23
2023-06-22T09:33:44.767Z,62.27
2023-06-22T09:36:10.876Z,62.08
2023-06-22T09:38:36.997Z,62.08
2023-06-22T09:41:03.189Z,61.64
2023-06-22T09:43:29.538Z,61.78
2023-06-22T09:45:55.706Z,61.49
2023-06-22T09:48:21.843Z,60.98
2023-06-22T09:50:47.959Z,60.63
2023-06-22T09:53:14.179Z,60.43
2023-06-22T09:55:40.540Z,59.91
2023-06-22T09:58:06.753Z,58.78
2023-06-22T10:00:32.914Z,59.29
2023-06-22T10:03:01.293Z,59.81
2023-06-22T10:05:28.331Z,59.48
2023-06-22T10:07:54.770Z,60.04
2023-06-22T10:10:20.992Z,59.35
2023-06-22T10:12:47.214Z,59.32
2023-06-22T10:15:13.427Z,60.76
2023-06-22T10:17:40.353Z,59.73
2023-06-22T10:20:12.294Z,59.31
2023-06-22T10:22:38.645Z,59.89
2023-06-22T10:25:04.846Z,60.06
2023-06-22T10:27:31.968Z,59.95
2023-06-22T10:29:58.245Z,61.05
2023-06-22T10:32:24.373Z,59.90
2023-06-22T10:34:50.646Z,60.02
2023-06-22T10:37:16.914Z,61.18
2023-06-22T10:39:43.081Z,61.28
2023-06-22T10:42:09.174Z,61.03
2023-06-22T10:44:35.357Z,61.24
2023-06-22T10:47:01.471Z,61.49
2023-06-22T10:49:27.602Z,59.67
2023-06-22T10:51:53.738Z,60.14
2023-06-22T10:54:19.911Z,59.00
2023-06-22T10:56:46.074Z,58.29
2023-06-22T10:59:12.286Z,58.87
2023-06-22T11:01:38.495Z,58.35
2023-06-22T11:04:05.228Z,56.98
2023-06-22T11:06:31.916Z,57.12
2023-06-22T11:09:11.662Z,57.38
2023-06-22T11:11:43.621Z,56.86
2023-06-22T11:14:09.846Z,56.01
2023-06-22T11:16:35.976Z,56.16
2023-06-22T11:19:03.635Z,58.43
2023-06-22T11:21:29.823Z,57.84
2023-06-22T11:23:55.930Z,57.66
2023-06-22T11:26:22.165Z,57.43
2023-06-22T11:28:48.343Z,57.08
2023-06-22T11:33:46.204Z,55.51
2023-06-22T11:36:12.403Z,55.23
2023-06-22T11:38:39.613Z,55.20
2023-06-22T11:41:06.050Z,55.65
2023-06-22T11:43:32.246Z,55.26
2023-06-22T11:45:58.358Z,55.58
2023-06-22T11:48:24.572Z,56.04
2023-06-22T11:50:50.714Z,57.18
2023-06-22T11:53:20.067Z,57.38
2023-06-22T11:55:46.293Z,56.87
2023-06-22T11:58:12.648Z,56.97
2023-06-22T12:00:50.217Z,55.48
2023-06-22T12:03:18.134Z,56.32
2023-06-22T12:05:44.359Z,56.80
2023-06-22T12:08:10.548Z,56.60
2023-06-22T12:10:36.726Z,56.44
2023-06-22T12:13:02.999Z,56.58
2023-06-22T12:15:29.133Z,56.84
2023-06-22T12:17:55.315Z,56.45
2023-06-22T12:20:22.636Z,56.74
2023-06-22T12:22:52.050Z,56.33
2023-06-22T12:25:18.319Z,55.62
2023-06-22T12:27:44.499Z,56.27
2023-06-22T12:30:10.603Z,55.27
2023-06-22T12:32:37.056Z,54.28
2023-06-22T12:35:03.770Z,55.10
2023-06-22T12:37:31.986Z,56.08
2023-06-22T12:39:58.485Z,55.70
2023-06-22T12:42:26.699Z,55.10
2023-06-22T12:44:54.101Z,54.83
2023-06-22T12:47:20.699Z,53.95
2023-06-22T12:49:46.853Z,53.33
2023-06-22T12:52:13.090Z,53.27
2023-06-22T12:54:50.433Z,53.60
2023-06-22T12:57:21.432Z,53.81
2023-06-22T12:59:47.733Z,53.93
2023-06-22T13:02:14.152Z,53.21
2023-06-22T13:04:40.585Z,52.96
2023-06-22T13:07:17.903Z,52.06
2023-06-22T13:09:47.044Z,52.36
2023-06-22T13:12:13.243Z,52.79
2023-06-22T13:14:39.372Z,52.07
2023-06-22T13:17:05.963Z,51.86
2023-06-22T13:19:33.095Z,51.83
2023-06-22T13:21:59.730Z,50.85
2023-06-22T13:24:25.827Z,50.53
2023-06-22T13:26:52.107Z,49.99
2023-06-22T13:29:18.321Z,49.24
2023-06-22T13:31:44.478Z,48.81
2023-06-22T13:34:10.767Z,49.06
2023-06-22T13:36:36.892Z,49.60
2023-06-22T13:39:03.997Z,50.11
2023-06-22T13:41:30.161Z,50.03
2023-06-22T13:43:56.391Z,50.03
2023-06-22T13:46:22.604Z,50.36
2023-06-22T13:48:48.891Z,50.30
2023-06-22T13:51:14.999Z,50.48
2023-06-22T13:53:41.212Z,50.95
2023-06-22T13:56:07.427Z,50.79
2023-06-22T13:58:33.617Z,50.60
2023-06-22T14:00:59.769Z,50.84
2023-06-22T14:03:26.049Z,50.34
2023-06-22T14:05:54.607Z,49.79
2023-06-22T14:08:40.211Z,50.08
2023-06-22T14:11:07.698Z,50.75
2023-06-22T14:13:35.999Z,48.94
2023-06-22T14:16:02.144Z,49.64
2023-06-22T14:18:28.791Z,49.96
2023-06-22T14:20:54.971Z,50.62
2023-06-22T14:23:21.122Z,50.70
2023-06-22T14:25:47.327Z,50.83
2023-06-22T14:28:13.553Z,52.13
2023-06-22T14:30:39.669Z,51.68
2023-06-22T14:33:05.949Z,50.60
2023-06-22T14:35:32.124Z,50.48
2023-06-22T14:37:58.272Z,50.16
2023-06-22T14:40:26.622Z,50.27
2023-06-22T14:42:53.563Z,50.86
2023-06-22T14:45:19.781Z,51.91
2023-06-22T14:47:46.008Z,52.34
2023-06-22T14:50:12.164Z,51.97
2023-06-22T14:52:38.298Z,51.46
2023-06-22T14:55:04.597Z,51.03
2023-06-22T14:57:30.823Z,50.73
2023-06-22T14:59:57.061Z,50.69
2023-06-22T15:02:23.604Z,51.01
2023-06-22T15:04:49.946Z,51.14
2023-06-22T15:07:16.062Z,50.47
2023-06-22T15:09:43.171Z,50.22
2023-06-22T15:12:11.835Z,50.23
2023-06-22T15:14:37.957Z,50.66
2023-06-22T15:17:04.166Z,49.54
2023-06-22T15:19:30.588Z,49.56
2023-06-22T15:21:56.774Z,49.14
2023-06-22T15:24:23.090Z,49.78
2023-06-22T15:26:49.288Z,49.75
2023-06-22T15:29:15.709Z,48.82
2023-06-22T15:31:42.016Z,50.16
2023-06-22T15:34:08.166Z,51.18
2023-06-22T15:36:34.294Z,51.07
2023-06-22T15:39:00.448Z,51.21
2023-06-22T15:41:28.568Z,51.46
2023-06-22T15:43:55.694Z,50.55
2023-06-22T15:46:21.892Z,50.45
2023-06-22T15:48:49.860Z,50.94
2023-06-22T15:51:17.208Z,50.93
2023-06-22T15:53:43.399Z,50.29
2023-06-22T15:56:12.359Z,50.51
2023-06-22T15:58:39.087Z,50.06
2023-06-22T16:01:05.820Z,50.25
2023-06-22T16:03:32.104Z,50.32
2023-06-22T16:05:58.344Z,49.57
2023-06-22T16:08:25.778Z,50.19
2023-06-22T16:10:52.404Z,50.07
2023-06-22T16:13:18.496Z,50.08
2023-06-22T16:15:44.825Z,50.19
2023-06-22T16:18:11.160Z,50.30
2023-06-22T16:20:37.558Z,50.90
2023-06-22T16:23:03.779Z,51.57
2023-06-22T16:25:30.057Z,52.08
2023-06-22T16:27:56.754Z,52.26
2023-06-22T16:30:23.097Z,52.11
2023-06-22T16:32:49.293Z,51.22
2023-06-22T16:35:15.769Z,52.04
2023-06-22T16:37:42.029Z,51.53
2023-06-22T16:40:10.478Z,52.36
2023-06-22T16:42:36.809Z,52.98
2023-06-22T16:45:03.988Z,53.24
2023-06-22T16:47:30.387Z,53.98
2023-06-22T16:49:56.776Z,54.27
2023-06-22T16:52:23.030Z,54.54
2023-06-22T16:55:00.151Z,54.81
2023-06-22T16:57:27.848Z,54.68
2023-06-22T16:59:54.297Z,54.71
2023-06-22T17:02:20.548Z,54.87
2023-06-22T17:04:46.734Z,55.20
2023-06-22T17:07:12.928Z,55.65
2023-06-22T17:09:39.175Z,55.81
2023-06-22T17:12:06.126Z,56.14
2023-06-22T17:14:32.243Z,56.41
2023-06-22T17:16:58.471Z,56.62
2023-06-22T17:19:24.784Z,56.75
2023-06-22T17:21:51.086Z,56.92
2023-06-22T17:24:18.083Z,57.11
2023-06-22T17:26:44.244Z,57.30
2023-06-22T17:29:10.429Z,57.47
2023-06-22T17:31:37.590Z,57.50
2023-06-22T17:34:03.917Z,57.79
2023-06-22T17:36:30.088Z,57.86
2023-06-22T17:38:56.276Z,57.95
2023-06-22T17:41:22.421Z,57.95
2023-06-22T17:43:48.567Z,58.02
2023-06-22T17:46:16.624Z,58.13
2023-06-22T17:48:42.782Z,58.34
2023-06-22T17:51:10.148Z,58.52
2023-06-22T17:53:36.238Z,58.86
2023-06-22T17:56:03.069Z,59.06
2023-06-22T17:58:29.800Z,59.09
2023-06-22T18:00:56.020Z,59.42
2023-06-22T18:03:22.309Z,59.67
2023-06-22T18:05:48.734Z,59.84
2023-06-22T18:08:16.240Z,60.28
2023-06-22T18:10:42.455Z,60.86
2023-06-22T18:13:08.617Z,61.58
2023-06-22T18:15:35.663Z,62.10
2023-06-22T18:18:02.070Z,62.58
2023-06-22T18:20:29.301Z,62.97
2023-06-22T18:22:55.514Z,63.11
2023-06-22T18:25:21.699Z,63.11
2023-06-22T18:27:47.872Z,63.26
2023-06-22T18:30:13.990Z,63.38
2023-06-22T18:32:40.755Z,63.64
2023-06-22T18:35:07.093Z,63.70
2023-06-22T18:37:33.352Z,63.86
2023-06-22T18:39:59.560Z,63.85
2023-06-22T18:42:25.802Z,63.99
2023-06-22T18:44:51.937Z,64.09
2023-06-22T18:47:18.159Z,64.35
2023-06-22T18:49:44.310Z,64.66
2023-06-22T18:52:10.442Z,65.07
2023-06-22T18:54:36.622Z,65.28
2023-06-22T18:57:03.571Z,65.45
2023-06-22T18:59:29.810Z,65.70
2023-06-22T19:01:56.006Z,65.81
2023-06-22T19:04:22.319Z,66.06
2023-06-22T19:06:48.432Z,66.18
2023-06-22T19:09:14.640Z,66.38
2023-06-22T19:11:40.983Z,66.60
2023-06-22T19:14:07.187Z,66.98
2023-06-22T19:16:33.389Z,67.12
2023-06-22T19:19:00.603Z,67.22
2023-06-22T19:21:26.827Z,67.38
2023-06-22T19:23:53.222Z,67.63
2023-06-22T19:26:19.319Z,67.87
2023-06-22T19:28:46.488Z,68.11
2023-06-22T19:31:12.805Z,68.36
2023-06-22T19:33:39.017Z,68.54
2023-06-22T19:36:05.397Z,68.68
2023-06-22T19:38:33.149Z,68.88
2023-06-22T19:40:59.368Z,69.14
2023-06-22T19:43:25.780Z,69.24
2023-06-22T19:45:51.967Z,69.53
2023-06-22T19:48:18.153Z,69.95
2023-06-22T19:50:44.597Z,70.01
2023-06-22T19:53:10.807Z,70.10
2023-06-22T19:55:37.319Z,70.24
2023-06-22T19:58:03.602Z,70.40
2023-06-22T20:00:30.093Z,70.39
2023-06-22T20:02:56.268Z,70.52
2023-06-22T20:05:23.499Z,70.62
2023-06-22T20:07:49.671Z,70.65
2023-06-22T20:10:16.176Z,70.77
2023-06-22T20:12:42.480Z,70.86
2023-06-22T20:15:08.705Z,70.73
2023-06-22T20:17:37.381Z,70.83
2023-06-22T20:20:05.284Z,71.21
2023-06-22T20:22:31.545Z,71.26
2023-06-22T20:24:57.894Z,71.42
2023-06-22T20:27:24.059Z,71.40
2023-06-22T20:29:50.260Z,71.50
2023-06-22T20:32:16.520Z,71.74
2023-06-22T20:34:44.979Z,71.81
2023-06-22T20:37:11.306Z,71.99
2023-06-22T20:39:37.627Z,72.17
2023-06-22T20:42:04.729Z,72.20
2023-06-22T20:44:31.175Z,72.37
2023-06-22T20:46:57.366Z,72.54
2023-06-22T20:49:23.656Z,72.83
2023-06-22T20:51:49.855Z,73.06
2023-06-22T20:54:17.956Z,73.33
2023-06-22T20:56:44.142Z,73.23
2023-06-22T20:59:10.287Z,73.36
2023-06-22T21:01:36.605Z,73.59
2023-06-22T21:04:02.881Z,73.64
2023-06-22T21:06:29.105Z,73.60
2023-06-22T21:08:55.242Z,73.73
2023-06-22T21:11:21.642Z,73.78
2023-06-22T21:13:47.760Z,73.74
2023-06-22T21:16:13.978Z,74.01
2023-06-22T21:18:40.083Z,74.29
2023-06-22T21:21:06.265Z,74.32
2023-06-22T21:23:32.444Z,74.75
2023-06-22T21:25:58.665Z,74.96
2023-06-22T21:28:25.833Z,75.13
2023-06-22T21:30:52.051Z,75.39
2023-06-22T21:33:18.575Z,75.38
2023-06-22T21:35:44.788Z,75.47
2023-06-22T21:38:11.048Z,75.66
2023-06-22T21:40:37.202Z,75.71
2023-06-22T21:43:04.868Z,75.88
2023-06-22T21:45:32.051Z,76.12
2023-06-22T21:47:58.559Z,75.97
2023-06-22T21:50:24.721Z,75.99
2023-06-22T21:52:51.161Z,76.09
2023-06-22T21:55:17.307Z,76.03
2023-06-22T21:57:43.434Z,76.04
2023-06-22T22:00:11.582Z,75.81
2023-06-22T22:02:37.768Z,75.82
2023-06-22T22:05:04.101Z,75.97
2023-06-22T22:07:30.845Z,76.17
2023-06-22T22:09:57.111Z,76.31
2023-06-22T22:12:23.346Z,76.56
2023-06-22T22:14:49.676Z,76.42
2023-06-22T22:17:15.781Z,76.37
2023-06-22T22:19:42.079Z,76.57
2023-06-22T22:22:08.303Z,76.68
2023-06-22T22:24:34.424Z,76.86
2023-06-22T22:27:00.885Z,76.66
2023-06-22T22:29:30.231Z,76.91
2023-06-22T22:31:56.424Z,76.88
2023-06-22T22:34:22.533Z,76.94
2023-06-22T22:36:48.705Z,76.89
2023-06-22T22:39:14.908Z,77.11
2023-06-22T22:41:41.037Z,77.12
2023-06-22T22:44:07.176Z,77.08
2023-06-22T22:46:35.345Z,77.20
2023-06-22T22:49:01.885Z,77.42
2023-06-22T22:51:28.000Z,77.69
2023-06-22T22:53:54.215Z,77.88
2023-06-22T22:56:20.628Z,77.70
2023-06-22T22:58:46.764Z,77.37
2023-06-22T23:01:12.899Z,77.48
2023-06-22T23:03:39.288Z,77.49
2023-06-22T23:06:05.837Z,77.39
2023-06-22T23:08:32.120Z,77.38
2023-06-22T23:10:58.261Z,77.27
2023-06-22T23:13:24.373Z,77.35
2023-06-22T23:15:51.756Z,77.25
2023-06-22T23:18:18.810Z,77.15
2023-06-22T23:20:44.972Z,77.04
2023-06-22T23:23:11.081Z,77.01
2023-06-22T23:25:38.569Z,77.28
2023-06-22T23:28:06.108Z,77.54
2023-06-22T23:30:32.215Z,77.54
2023-06-22T23:32:58.493Z,77.53
2023-06-22T23:35:24.763Z,77.63
2023-06-22T23:37:53.177Z,77.70
2023-06-22T23:40:19.934Z,77.84
2023-06-22T23:42:47.115Z,78.12
2023-06-22T23:45:13.829Z,78.32
2023-06-22T23:47:40.334Z,78.10
2023-06-22T23:50:06.987Z,78.31
2023-06-22T23:52:33.266Z,78.43
2023-06-22T23:54:59.466Z,78.31
2023-06-22T23:57:25.607Z,78.14
2023-06-22T23:59:52.572Z,78.21
